sensor_id;sensor_type;location;lat;lon;timestamp;pressure;altitude;pressure_sealevel;temperature;humidity
61436;BME280;47304;47.456;19.160;2023-01-15T00:00:51;100653.91;;;2.88;81.99
61436;BME280;47304;47.456;19.160;2023-01-15T00:03:18;100657.55;;;2.88;81.93
61436;BME280;47304;47.456;19.160;2023-01-15T00:05:44;100659.01;;;2.86;81.95
61436;BME280;47304;47.456;19.160;2023-01-15T00:08:11;100657.74;;;2.84;82.05
61436;BME280;47304;47.456;19.160;2023-01-15T00:10:37;100662.33;;;2.81;82.13
61436;BME280;47304;47.456;19.160;2023-01-15T00:13:04;100655.92;;;2.81;82.10
61436;BME280;47304;47.456;19.160;2023-01-15T00:15:30;100654.34;;;2.80;82.06
61436;BME280;47304;47.456;19.160;2023-01-15T00:17:57;100649.65;;;2.80;82.14
61436;BME280;47304;47.456;19.160;2023-01-15T00:20:23;100654.15;;;2.80;82.20
61436;BME280;47304;47.456;19.160;2023-01-15T00:22:50;100652.95;;;2.80;82.18
61436;BME280;47304;47.456;19.160;2023-01-15T00:25:16;100647.35;;;2.79;82.08
61436;BME280;47304;47.456;19.160;2023-01-15T00:27:43;100643.36;;;2.74;82.13
61436;BME280;47304;47.456;19.160;2023-01-15T00:30:12;100639.36;;;2.69;82.32
61436;BME280;47304;47.456;19.160;2023-01-15T00:32:40;100641.39;;;2.62;82.22
61436;BME280;47304;47.456;19.160;2023-01-15T00:35:12;100641.75;;;2.58;82.53
61436;BME280;47304;47.456;19.160;2023-01-15T00:37:39;100639.25;;;2.56;82.68
61436;BME280;47304;47.456;19.160;2023-01-15T00:40:06;100634.71;;;2.54;82.61
61436;BME280;47304;47.456;19.160;2023-01-15T00:42:32;100633.64;;;2.53;82.61
61436;BME280;47304;47.456;19.160;2023-01-15T00:44:59;100632.70;;;2.51;82.74
61436;BME280;47304;47.456;19.160;2023-01-15T00:47:25;100627.80;;;2.49;82.57
61436;BME280;47304;47.456;19.160;2023-01-15T00:49:52;100627.23;;;2.48;82.83
61436;BME280;47304;47.456;19.160;2023-01-15T00:52:18;100625.70;;;2.44;82.78
61436;BME280;47304;47.456;19.160;2023-01-15T00:54:45;100621.98;;;2.42;82.85
61436;BME280;47304;47.456;19.160;2023-01-15T00:57:11;100622.81;;;2.41;82.79
61436;BME280;47304;47.456;19.160;2023-01-15T00:59:38;100621.23;;;2.40;82.85
61436;BME280;47304;47.456;19.160;2023-01-15T01:02:04;100623.67;;;2.40;82.77
61436;BME280;47304;47.456;19.160;2023-01-15T01:04:31;100624.30;;;2.39;82.78
61436;BME280;47304;47.456;19.160;2023-01-15T01:06:57;100622.18;;;2.38;82.76
61436;BME280;47304;47.456;19.160;2023-01-15T01:09:24;100615.64;;;2.33;82.70
61436;BME280;47304;47.456;19.160;2023-01-15T01:11:50;100607.27;;;2.31;82.79
61436;BME280;47304;47.456;19.160;2023-01-15T01:14:17;100606.25;;;2.33;82.95
61436;BME280;47304;47.456;19.160;2023-01-15T01:16:44;100604.91;;;2.34;83.02
61436;BME280;47304;47.456;19.160;2023-01-15T01:19:15;100608.45;;;2.36;82.96
61436;BME280;47304;47.456;19.160;2023-01-15T01:21:46;100608.23;;;2.34;82.93
61436;BME280;47304;47.456;19.160;2023-01-15T01:24:15;100609.29;;;2.30;82.69
61436;BME280;47304;47.456;19.160;2023-01-15T01:26:42;100608.80;;;2.26;82.77
61436;BME280;47304;47.456;19.160;2023-01-15T01:29:14;100601.82;;;2.25;82.94
61436;BME280;47304;47.456;19.160;2023-01-15T01:31:41;100603.31;;;2.23;82.92
61436;BME280;47304;47.456;19.160;2023-01-15T01:34:09;100602.85;;;2.20;82.95
61436;BME280;47304;47.456;19.160;2023-01-15T01:36:37;100603.38;;;2.15;82.96
61436;BME280;47304;47.456;19.160;2023-01-15T01:39:05;100600.55;;;2.14;83.21
61436;BME280;47304;47.456;19.160;2023-01-15T01:41:33;100598.84;;;2.14;83.22
61436;BME280;47304;47.456;19.160;2023-01-15T01:46:30;100596.86;;;2.12;83.12
61436;BME280;47304;47.456;19.160;2023-01-15T01:49:02;100594.59;;;2.11;83.14
61436;BME280;47304;47.456;19.160;2023-01-15T01:51:34;100598.80;;;2.13;83.32
61436;BME280;47304;47.456;19.160;2023-01-15T01:54:03;100596.31;;;2.11;83.21
61436;BME280;47304;47.456;19.160;2023-01-15T01:56:32;100587.27;;;2.10;83.07
61436;BME280;47304;47.456;19.160;2023-01-15T01:59:00;100586.54;;;2.09;83.12
61436;BME280;47304;47.456;19.160;2023-01-15T02:01:28;100580.92;;;2.06;83.04
61436;BME280;47304;47.456;19.160;2023-01-15T02:03:55;100572.54;;;2.04;83.16
61436;BME280;47304;47.456;19.160;2023-01-15T02:06:24;100563.85;;;2.02;83.23
61436;BME280;47304;47.456;19.160;2023-01-15T02:08:51;100559.92;;;1.99;83.29
61436;BME280;47304;47.456;19.160;2023-01-15T02:11:20;100554.54;;;1.94;83.26
61436;BME280;47304;47.456;19.160;2023-01-15T02:14:08;100551.50;;;1.86;83.27
61436;BME280;47304;47.456;19.160;2023-01-15T02:16:42;100545.62;;;1.82;83.35
61436;BME280;47304;47.456;19.160;2023-01-15T02:27:41;100529.79;;;1.74;83.82
61436;BME280;47304;47.456;19.160;2023-01-15T02:30:15;100530.87;;;1.76;83.74
61436;BME280;47304;47.456;19.160;2023-01-15T02:32:49;100520.27;;;1.78;83.77
61436;BME280;47304;47.456;19.160;2023-01-15T02:37:54;100520.92;;;1.82;83.60
61436;BME280;47304;47.456;19.160;2023-01-15T02:40:23;100524.16;;;1.85;83.62
61436;BME280;47304;47.456;19.160;2023-01-15T02:42:51;100524.59;;;1.88;83.56
61436;BME280;47304;47.456;19.160;2023-01-15T02:45:25;100520.81;;;1.88;83.40
61436;BME280;47304;47.456;19.160;2023-01-15T02:47:54;100521.30;;;1.87;83.14
61436;BME280;47304;47.456;19.160;2023-01-15T02:50:26;100515.23;;;1.87;83.25
61436;BME280;47304;47.456;19.160;2023-01-15T02:52:57;100505.31;;;1.85;83.24
61436;BME280;47304;47.456;19.160;2023-01-15T02:55:30;100500.40;;;1.83;83.08
61436;BME280;47304;47.456;19.160;2023-01-15T02:58:00;100500.55;;;1.82;83.25
61436;BME280;47304;47.456;19.160;2023-01-15T03:00:30;100501.23;;;1.82;83.39
61436;BME280;47304;47.456;19.160;2023-01-15T03:03:23;100507.31;;;1.78;83.16
61436;BME280;47304;47.456;19.160;2023-01-15T03:05:59;100499.41;;;1.75;83.22
61436;BME280;47304;47.456;19.160;2023-01-15T03:08:26;100502.46;;;1.73;83.34
61436;BME280;47304;47.456;19.160;2023-01-15T03:11:04;100499.52;;;1.73;83.42
61436;BME280;47304;47.456;19.160;2023-01-15T03:14:04;100498.52;;;1.74;83.48
61436;BME280;47304;47.456;19.160;2023-01-15T03:16:42;100492.46;;;1.69;83.36
61436;BME280;47304;47.456;19.160;2023-01-15T03:24:28;100493.98;;;1.59;83.82
61436;BME280;47304;47.456;19.160;2023-01-15T03:26:56;100491.13;;;1.61;83.91
61436;BME280;47304;47.456;19.160;2023-01-15T03:29:25;100490.70;;;1.63;83.92
61436;BME280;47304;47.456;19.160;2023-01-15T03:31:53;100492.16;;;1.66;83.78
61436;BME280;47304;47.456;19.160;2023-01-15T03:34:19;100488.52;;;1.65;83.81
61436;BME280;47304;47.456;19.160;2023-01-15T03:36:46;100487.61;;;1.64;83.72
61436;BME280;47304;47.456;19.160;2023-01-15T03:39:13;100483.77;;;1.63;83.73
61436;BME280;47304;47.456;19.160;2023-01-15T03:44:38;100474.00;;;1.60;83.85
61436;BME280;47304;47.456;19.160;2023-01-15T03:55:20;100462.68;;;1.53;84.19
61436;BME280;47304;47.456;19.160;2023-01-15T04:00:52;100459.83;;;1.55;84.35
61436;BME280;47304;47.456;19.160;2023-01-15T04:03:24;100456.73;;;1.55;84.22
61436;BME280;47304;47.456;19.160;2023-01-15T04:05:56;100453.67;;;1.57;84.43
61436;BME280;47304;47.456;19.160;2023-01-15T04:08:26;100466.02;;;1.59;84.32
61436;BME280;47304;47.456;19.160;2023-01-15T04:10:56;100475.91;;;1.61;84.35
61436;BME280;47304;47.456;19.160;2023-01-15T04:13:24;100472.64;;;1.61;84.26
61436;BME280;47304;47.456;19.160;2023-01-15T04:15:51;100479.66;;;1.64;84.35
61436;BME280;47304;47.456;19.160;2023-01-15T04:18:18;100477.67;;;1.66;84.25
61436;BME280;47304;47.456;19.160;2023-01-15T04:20:44;100474.02;;;1.70;84.22
61436;BME280;47304;47.456;19.160;2023-01-15T04:23:11;100472.21;;;1.73;84.00
61436;BME280;47304;47.456;19.160;2023-01-15T04:25:38;100471.95;;;1.74;83.84
61436;BME280;47304;47.456;19.160;2023-01-15T04:28:06;100466.60;;;1.75;83.79
61436;BME280;47304;47.456;19.160;2023-01-15T04:30:33;100463.98;;;1.74;83.74
61436;BME280;47304;47.456;19.160;2023-01-15T04:33:00;100459.54;;;1.76;83.70
61436;BME280;47304;47.456;19.160;2023-01-15T04:35:26;100458.55;;;1.77;83.70
61436;BME280;47304;47.456;19.160;2023-01-15T04:37:54;100454.65;;;1.79;83.82
61436;BME280;47304;47.456;19.160;2023-01-15T04:40:21;100450.95;;;1.81;83.64
61436;BME280;47304;47.456;19.160;2023-01-15T04:42:48;100439.25;;;1.83;83.71
61436;BME280;47304;47.456;19.160;2023-01-15T04:45:14;100433.45;;;1.85;83.59
61436;BME280;47304;47.456;19.160;2023-01-15T04:47:41;100441.29;;;1.87;83.55
61436;BME280;47304;47.456;19.160;2023-01-15T04:50:08;100435.92;;;1.86;83.61
61436;BME280;47304;47.456;19.160;2023-01-15T04:52:35;100447.42;;;1.89;83.51
61436;BME280;47304;47.456;19.160;2023-01-15T04:55:02;100442.61;;;1.90;83.46
61436;BME280;47304;47.456;19.160;2023-01-15T04:57:28;100446.65;;;1.92;83.47
61436;BME280;47304;47.456;19.160;2023-01-15T04:59:55;100453.86;;;1.91;83.24
61436;BME280;47304;47.456;19.160;2023-01-15T05:02:22;100455.13;;;1.87;83.23
61436;BME280;47304;47.456;19.160;2023-01-15T05:04:48;100453.09;;;1.84;83.25
61436;BME280;47304;47.456;19.160;2023-01-15T05:07:15;100456.27;;;1.81;83.28
61436;BME280;47304;47.456;19.160;2023-01-15T05:09:41;100453.27;;;1.79;83.39
61436;BME280;47304;47.456;19.160;2023-01-15T05:12:08;100455.17;;;1.79;83.57
61436;BME280;47304;47.456;19.160;2023-01-15T05:14:34;100448.04;;;1.77;83.51
61436;BME280;47304;47.456;19.160;2023-01-15T05:17:01;100446.19;;;1.79;83.59
61436;BME280;47304;47.456;19.160;2023-01-15T05:19:27;100443.95;;;1.79;83.64
61436;BME280;47304;47.456;19.160;2023-01-15T05:21:54;100440.98;;;1.78;83.60
61436;BME280;47304;47.456;19.160;2023-01-15T05:24:20;100432.28;;;1.77;83.83
61436;BME280;47304;47.456;19.160;2023-01-15T05:26:47;100427.10;;;1.77;83.85
61436;BME280;47304;47.456;19.160;2023-01-15T05:29:13;100423.68;;;1.78;83.93
61436;BME280;47304;47.456;19.160;2023-01-15T05:31:40;100421.30;;;1.79;83.85
61436;BME280;47304;47.456;19.160;2023-01-15T05:34:07;100409.92;;;1.80;84.00
61436;BME280;47304;47.456;19.160;2023-01-15T05:36:33;100411.91;;;1.82;84.08
61436;BME280;47304;47.456;19.160;2023-01-15T05:39:00;100399.46;;;1.81;84.14
61436;BME280;47304;47.456;19.160;2023-01-15T05:41:27;100394.46;;;1.82;84.12
61436;BME280;47304;47.456;19.160;2023-01-15T05:43:54;100387.52;;;1.81;84.18
61436;BME280;47304;47.456;19.160;2023-01-15T05:46:22;100384.60;;;1.81;84.35
61436;BME280;47304;47.456;19.160;2023-01-15T05:48:48;100381.35;;;1.82;84.29
61436;BME280;47304;47.456;19.160;2023-01-15T05:51:15;100376.74;;;1.84;84.37
61436;BME280;47304;47.456;19.160;2023-01-15T05:53:42;100376.48;;;1.86;84.49
61436;BME280;47304;47.456;19.160;2023-01-15T05:56:08;100376.52;;;1.87;84.57
61436;BME280;47304;47.456;19.160;2023-01-15T05:58:35;100371.25;;;1.90;84.57
61436;BME280;47304;47.456;19.160;2023-01-15T06:01:08;100369.11;;;1.93;84.64
61436;BME280;47304;47.456;19.160;2023-01-15T06:03:35;100364.49;;;1.95;84.73
61436;BME280;47304;47.456;19.160;2023-01-15T06:06:03;100365.21;;;1.95;84.59
61436;BME280;47304;47.456;19.160;2023-01-15T06:08:30;100363.68;;;1.95;84.71
61436;BME280;47304;47.456;19.160;2023-01-15T06:10:56;100358.45;;;1.94;84.72
61436;BME280;47304;47.456;19.160;2023-01-15T06:13:23;100356.60;;;1.96;84.91
61436;BME280;47304;47.456;19.160;2023-01-15T06:15:49;100357.15;;;1.97;84.93
61436;BME280;47304;47.456;19.160;2023-01-15T06:18:16;100350.66;;;1.99;85.05
61436;BME280;47304;47.456;19.160;2023-01-15T06:20:42;100350.20;;;2.01;85.03
61436;BME280;47304;47.456;19.160;2023-01-15T06:23:09;100355.97;;;2.02;85.02
61436;BME280;47304;47.456;19.160;2023-01-15T06:25:36;100355.38;;;2.06;85.10
61436;BME280;47304;47.456;19.160;2023-01-15T06:28:06;100350.13;;;2.09;85.12
61436;BME280;47304;47.456;19.160;2023-01-15T06:30:33;100353.36;;;2.12;85.15
61436;BME280;47304;47.456;19.160;2023-01-15T06:33:00;100355.36;;;2.15;85.04
61436;BME280;47304;47.456;19.160;2023-01-15T06:35:26;100362.91;;;2.19;85.13
61436;BME280;47304;47.456;19.160;2023-01-15T06:37:53;100360.27;;;2.23;85.25
61436;BME280;47304;47.456;19.160;2023-01-15T06:40:20;100358.70;;;2.28;85.01
61436;BME280;47304;47.456;19.160;2023-01-15T06:42:46;100354.86;;;2.32;84.92
61436;BME280;47304;47.456;19.160;2023-01-15T06:45:13;100354.29;;;2.36;84.88
61436;BME280;47304;47.456;19.160;2023-01-15T06:47:39;100352.50;;;2.39;84.81
61436;BME280;47304;47.456;19.160;2023-01-15T06:50:06;100354.64;;;2.42;84.80
61436;BME280;47304;47.456;19.160;2023-01-15T06:52:32;100349.91;;;2.44;84.87
61436;BME280;47304;47.456;19.160;2023-01-15T06:54:59;100345.98;;;2.47;84.74
61436;BME280;47304;47.456;19.160;2023-01-15T06:57:25;100341.23;;;2.50;84.66
61436;BME280;47304;47.456;19.160;2023-01-15T06:59:52;100340.83;;;2.53;84.63
61436;BME280;47304;47.456;19.160;2023-01-15T07:02:19;100334.27;;;2.54;84.71
61436;BME280;47304;47.456;19.160;2023-01-15T07:04:46;100328.66;;;2.57;84.90
61436;BME280;47304;47.456;19.160;2023-01-15T07:07:16;100329.31;;;2.60;84.76
61436;BME280;47304;47.456;19.160;2023-01-15T07:09:43;100330.80;;;2.63;84.54
61436;BME280;47304;47.456;19.160;2023-01-15T07:12:10;100335.14;;;2.65;84.60
61436;BME280;47304;47.456;19.160;2023-01-15T07:14:36;100334.87;;;2.67;84.71
61436;BME280;47304;47.456;19.160;2023-01-15T07:17:03;100343.61;;;2.71;84.70
61436;BME280;47304;47.456;19.160;2023-01-15T07:19:29;100342.50;;;2.73;84.66
61436;BME280;47304;47.456;19.160;2023-01-15T07:21:56;100348.63;;;2.76;84.67
61436;BME280;47304;47.456;19.160;2023-01-15T07:24:23;100348.37;;;2.78;84.64
61436;BME280;47304;47.456;19.160;2023-01-15T07:26:49;100341.39;;;2.82;84.59
61436;BME280;47304;47.456;19.160;2023-01-15T07:29:16;100341.14;;;2.86;84.63
61436;BME280;47304;47.456;19.160;2023-01-15T07:31:42;100341.19;;;2.87;84.55
61436;BME280;47304;47.456;19.160;2023-01-15T07:34:09;100339.57;;;2.91;84.55
61436;BME280;47304;47.456;19.160;2023-01-15T07:36:36;100339.69;;;2.95;84.47
61436;BME280;47304;47.456;19.160;2023-01-15T07:39:04;100341.19;;;2.99;84.40
61436;BME280;47304;47.456;19.160;2023-01-15T07:41:31;100336.38;;;3.00;84.40
61436;BME280;47304;47.456;19.160;2023-01-15T07:43:57;100331.95;;;3.02;84.45
61436;BME280;47304;47.456;19.160;2023-01-15T07:46:24;100325.76;;;3.04;84.44
61436;BME280;47304;47.456;19.160;2023-01-15T07:48:50;100328.77;;;3.06;84.42
61436;BME280;47304;47.456;19.160;2023-01-15T07:51:17;100325.57;;;3.09;84.54
61436;BME280;47304;47.456;19.160;2023-01-15T07:53:43;100319.96;;;3.13;84.58
61436;BME280;47304;47.456;19.160;2023-01-15T07:56:10;100314.67;;;3.16;84.48
61436;BME280;47304;47.456;19.160;2023-01-15T07:58:36;100313.07;;;3.20;84.36
61436;BME280;47304;47.456;19.160;2023-01-15T08:01:03;100313.69;;;3.23;84.42
61436;BME280;47304;47.456;19.160;2023-01-15T08:03:30;100313.41;;;3.26;84.36
61436;BME280;47304;47.456;19.160;2023-01-15T08:05:56;100312.42;;;3.28;84.35
61436;BME280;47304;47.456;19.160;2023-01-15T08:08:23;100311.95;;;3.29;84.37
61436;BME280;47304;47.456;19.160;2023-01-15T08:10:49;100310.27;;;3.32;84.47
61436;BME280;47304;47.456;19.160;2023-01-15T08:13:16;100308.27;;;3.34;84.42
61436;BME280;47304;47.456;19.160;2023-01-15T08:15:42;100307.99;;;3.37;84.51
61436;BME280;47304;47.456;19.160;2023-01-15T08:18:09;100308.57;;;3.38;84.51
61436;BME280;47304;47.456;19.160;2023-01-15T08:20:35;100304.48;;;3.41;84.41
61436;BME280;47304;47.456;19.160;2023-01-15T08:23:01;100306.27;;;3.43;84.52
61436;BME280;47304;47.456;19.160;2023-01-15T08:25:28;100306.52;;;3.46;84.45
61436;BME280;47304;47.456;19.160;2023-01-15T08:27:55;100302.78;;;3.49;84.35
61436;BME280;47304;47.456;19.160;2023-01-15T08:30:23;100306.83;;;3.51;84.32
61436;BME280;47304;47.456;19.160;2023-01-15T08:32:50;100308.16;;;3.55;84.30
61436;BME280;47304;47.456;19.160;2023-01-15T08:35:17;100307.04;;;3.59;84.18
61436;BME280;47304;47.456;19.160;2023-01-15T08:37:43;100304.02;;;3.63;84.11
61436;BME280;47304;47.456;19.160;2023-01-15T08:40:11;100302.55;;;3.66;84.04
61436;BME280;47304;47.456;19.160;2023-01-15T08:42:38;100297.67;;;3.72;83.98
61436;BME280;47304;47.456;19.160;2023-01-15T08:45:05;100303.02;;;3.77;83.94
61436;BME280;47304;47.456;19.160;2023-01-15T08:47:32;100304.21;;;3.83;83.74
61436;BME280;47304;47.456;19.160;2023-01-15T08:49:58;100297.96;;;3.90;83.76
61436;BME280;47304;47.456;19.160;2023-01-15T08:52:25;100296.77;;;3.98;83.52
61436;BME280;47304;47.456;19.160;2023-01-15T08:54:51;100299.35;;;4.03;83.32
61436;BME280;47304;47.456;19.160;2023-01-15T08:57:17;100302.24;;;4.09;83.10
61436;BME280;47304;47.456;19.160;2023-01-15T08:59:46;100294.71;;;4.13;82.95
61436;BME280;47304;47.456;19.160;2023-01-15T09:02:14;100297.39;;;4.16;82.87
61436;BME280;47304;47.456;19.160;2023-01-15T09:04:41;100298.73;;;4.21;82.74
61436;BME280;47304;47.456;19.160;2023-01-15T09:07:07;100292.00;;;4.30;82.62
61436;BME280;47304;47.456;19.160;2023-01-15T09:09:34;100284.34;;;4.36;82.35
61436;BME280;47304;47.456;19.160;2023-01-15T09:12:00;100289.30;;;4.41;82.09
61436;BME280;47304;47.456;19.160;2023-01-15T09:14:27;100280.00;;;4.43;81.71
61436;BME280;47304;47.456;19.160;2023-01-15T09:17:13;100277.84;;;4.47;81.53
61436;BME280;47304;47.456;19.160;2023-01-15T09:19:40;100277.83;;;4.54;81.35
61436;BME280;47304;47.456;19.160;2023-01-15T09:22:06;100269.98;;;4.61;80.80
61436;BME280;47304;47.456;19.160;2023-01-15T09:24:33;100267.69;;;4.67;80.65
61436;BME280;47304;47.456;19.160;2023-01-15T09:26:59;100259.51;;;4.74;80.48
61436;BME280;47304;47.456;19.160;2023-01-15T09:29:26;100252.81;;;4.77;80.28
61436;BME280;47304;47.456;19.160;2023-01-15T09:31:52;100246.16;;;4.83;80.19
61436;BME280;47304;47.456;19.160;2023-01-15T09:34:19;100239.52;;;4.90;80.27
61436;BME280;47304;47.456;19.160;2023-01-15T09:36:46;100239.24;;;5.01;79.75
61436;BME280;47304;47.456;19.160;2023-01-15T09:39:12;100235.80;;;5.11;79.42
61436;BME280;47304;47.456;19.160;2023-01-15T09:42:08;100237.14;;;5.18;78.70
61436;BME280;47304;47.456;19.160;2023-01-15T09:47:17;100217.21;;;5.20;78.25
61436;BME280;47304;47.456;19.160;2023-01-15T09:55:29;100195.24;;;5.26;78.29
61436;BME280;47304;47.456;19.160;2023-01-15T09:57:59;100196.73;;;5.30;78.03
61436;BME280;47304;47.456;19.160;2023-01-15T10:00:33;100195.41;;;5.34;77.48
61436;BME280;47304;47.456;19.160;2023-01-15T10:05:52;100180.73;;;5.60;76.94
61436;BME280;47304;47.456;19.160;2023-01-15T10:08:37;100178.23;;;5.88;76.33
61436;BME280;47304;47.456;19.160;2023-01-15T10:13:51;100160.29;;;6.32;75.15
61436;BME280;47304;47.456;19.160;2023-01-15T10:16:25;100160.83;;;6.47;74.75
61436;BME280;47304;47.456;19.160;2023-01-15T10:18:52;100155.42;;;7.07;73.54
61436;BME280;47304;47.456;19.160;2023-01-15T10:26:34;100126.45;;;8.45;68.13
61436;BME280;47304;47.456;19.160;2023-01-15T10:31:53;100116.14;;;8.40;68.56
61436;BME280;47304;47.456;19.160;2023-01-15T10:34:56;100109.85;;;8.39;67.71
61436;BME280;47304;47.456;19.160;2023-01-15T10:40:35;100102.96;;;8.59;66.51
61436;BME280;47304;47.456;19.160;2023-01-15T10:45:59;100090.25;;;10.05;63.10
61436;BME280;47304;47.456;19.160;2023-01-15T10:51:27;100074.09;;;10.99;60.81
61436;BME280;47304;47.456;19.160;2023-01-15T10:54:21;100074.98;;;10.94;57.96
61436;BME280;47304;47.456;19.160;2023-01-15T10:57:14;100067.27;;;10.93;59.46
61436;BME280;47304;47.456;19.160;2023-01-15T10:59:48;100060.13;;;11.34;58.57
61436;BME280;47304;47.456;19.160;2023-01-15T11:04:49;100045.91;;;12.63;55.94
61436;BME280;47304;47.456;19.160;2023-01-15T11:07:16;100040.23;;;12.42;55.55
61436;BME280;47304;47.456;19.160;2023-01-15T11:09:44;100036.70;;;12.15;55.28
61436;BME280;47304;47.456;19.160;2023-01-15T11:12:25;100032.35;;;11.79;53.60
61436;BME280;47304;47.456;19.160;2023-01-15T11:14:52;100031.20;;;11.34;55.68
61436;BME280;47304;47.456;19.160;2023-01-15T11:17:20;100035.08;;;10.87;55.78
61436;BME280;47304;47.456;19.160;2023-01-15T11:19:51;100026.40;;;10.43;57.06
61436;BME280;47304;47.456;19.160;2023-01-15T11:22:18;100024.95;;;10.07;57.65
61436;BME280;47304;47.456;19.160;2023-01-15T11:24:49;100016.34;;;9.69;58.35
61436;BME280;47304;47.456;19.160;2023-01-15T11:27:24;100009.21;;;9.41;59.59
61436;BME280;47304;47.456;19.160;2023-01-15T11:29:56;100019.56;;;9.15;60.17
61436;BME280;47304;47.456;19.160;2023-01-15T11:32:29;100017.80;;;8.83;60.73
61436;BME280;47304;47.456;19.160;2023-01-15T11:35:17;100014.59;;;8.52;61.43
61436;BME280;47304;47.456;19.160;2023-01-15T11:37:43;100006.65;;;8.26;62.51
61436;BME280;47304;47.456;19.160;2023-01-15T11:40:21;100002.23;;;8.15;63.02
61436;BME280;47304;47.456;19.160;2023-01-15T11:42:49;99992.11;;;8.07;63.14
61436;BME280;47304;47.456;19.160;2023-01-15T11:45:18;99989.46;;;8.06;63.63
61436;BME280;47304;47.456;19.160;2023-01-15T11:47:53;99990.38;;;8.13;63.94
61436;BME280;47304;47.456;19.160;2023-01-15T11:50:20;99987.80;;;8.24;63.93
61436;BME280;47304;47.456;19.160;2023-01-15T11:52:51;99972.46;;;8.35;64.00
61436;BME280;47304;47.456;19.160;2023-01-15T11:55:19;99954.16;;;8.44;63.85
61436;BME280;47304;47.456;19.160;2023-01-15T11:57:48;99942.69;;;8.53;63.67
61436;BME280;47304;47.456;19.160;2023-01-15T12:00:27;99939.90;;;8.67;62.89
61436;BME280;47304;47.456;19.160;2023-01-15T12:03:03;99926.45;;;8.76;62.80
61436;BME280;47304;47.456;19.160;2023-01-15T12:05:34;99921.91;;;8.88;62.78
61436;BME280;47304;47.456;19.160;2023-01-15T12:08:03;99914.04;;;8.98;61.93
61436;BME280;47304;47.456;19.160;2023-01-15T12:13:52;99907.76;;;8.95;62.33
61436;BME280;47304;47.456;19.160;2023-01-15T12:22:11;99905.97;;;9.12;62.03
61436;BME280;47304;47.456;19.160;2023-01-15T12:27:23;99912.24;;;9.21;62.77
61436;BME280;47304;47.456;19.160;2023-01-15T12:29:59;99910.64;;;9.36;61.88
61436;BME280;47304;47.456;19.160;2023-01-15T12:32:37;99907.27;;;9.48;61.43
61436;BME280;47304;47.456;19.160;2023-01-15T12:35:14;99904.60;;;9.63;61.58
61436;BME280;47304;47.456;19.160;2023-01-15T12:37:46;99896.86;;;9.75;61.53
61436;BME280;47304;47.456;19.160;2023-01-15T12:43:14;99896.42;;;9.93;61.56
61436;BME280;47304;47.456;19.160;2023-01-15T12:45:46;99893.20;;;10.05;61.43
61436;BME280;47304;47.456;19.160;2023-01-15T12:48:32;99893.67;;;10.12;60.80
61436;BME280;47304;47.456;19.160;2023-01-15T12:51:02;99889.67;;;10.11;60.36
61436;BME280;47304;47.456;19.160;2023-01-15T12:53:38;99887.25;;;10.05;60.60
61436;BME280;47304;47.456;19.160;2023-01-15T13:01:33;99883.20;;;10.39;60.80
61436;BME280;47304;47.456;19.160;2023-01-15T13:04:33;99875.25;;;10.69;59.93
61436;BME280;47304;47.456;19.160;2023-01-15T13:10:34;99866.19;;;10.84;58.96
61436;BME280;47304;47.456;19.160;2023-01-15T13:13:17;99863.46;;;10.75;58.95
61436;BME280;47304;47.456;19.160;2023-01-15T13:16:07;99869.52;;;10.65;59.09
61436;BME280;47304;47.456;19.160;2023-01-15T13:21:42;99870.45;;;10.34;59.16
61436;BME280;47304;47.456;19.160;2023-01-15T13:30:20;99862.77;;;10.01;59.90
61436;BME280;47304;47.456;19.160;2023-01-15T13:32:58;99855.16;;;9.88;59.75
61436;BME280;47304;47.456;19.160;2023-01-15T13:35:45;99847.17;;;9.76;60.14
61436;BME280;47304;47.456;19.160;2023-01-15T13:38:21;99837.06;;;9.69;60.40
61436;BME280;47304;47.456;19.160;2023-01-15T13:40:52;99830.30;;;9.59;60.37
61436;BME280;47304;47.456;19.160;2023-01-15T13:45:52;99831.80;;;9.36;60.81
61436;BME280;47304;47.456;19.160;2023-01-15T13:48:28;99832.20;;;9.28;61.25
61436;BME280;47304;47.456;19.160;2023-01-15T13:51:01;99831.34;;;9.19;61.46
61436;BME280;47304;47.456;19.160;2023-01-15T13:53:38;99824.38;;;9.08;61.42
61436;BME280;47304;47.456;19.160;2023-01-15T13:56:07;99824.07;;;8.96;61.37
61436;BME280;47304;47.456;19.160;2023-01-15T13:58:50;99823.05;;;8.82;61.63
61436;BME280;47304;47.456;19.160;2023-01-15T14:09:10;99813.64;;;8.41;61.70
61436;BME280;47304;47.456;19.160;2023-01-15T14:17:24;99812.25;;;8.24;62.85
61436;BME280;47304;47.456;19.160;2023-01-15T14:29:01;99807.36;;;8.08;63.05
61436;BME280;47304;47.456;19.160;2023-01-15T14:31:44;99805.78;;;8.05;63.21
61436;BME280;47304;47.456;19.160;2023-01-15T14:37:04;99806.30;;;7.98;63.74
61436;BME280;47304;47.456;19.160;2023-01-15T14:39:52;99800.38;;;7.96;64.19
61436;BME280;47304;47.456;19.160;2023-01-15T14:44:54;99793.39;;;7.92;64.44
61436;BME280;47304;47.456;19.160;2023-01-15T14:47:28;99789.35;;;7.90;64.70
61436;BME280;47304;47.456;19.160;2023-01-15T14:50:01;99792.34;;;7.88;64.94
61436;BME280;47304;47.456;19.160;2023-01-15T14:52:29;99791.98;;;7.87;65.04
61436;BME280;47304;47.456;19.160;2023-01-15T14:54:57;99789.02;;;7.87;65.11
61436;BME280;47304;47.456;19.160;2023-01-15T14:57:24;99788.15;;;7.87;65.33
61436;BME280;47304;47.456;19.160;2023-01-15T14:59:55;99785.02;;;7.87;65.23
61436;BME280;47304;47.456;19.160;2023-01-15T15:02:27;99785.88;;;7.87;65.45
61436;BME280;47304;47.456;19.160;2023-01-15T15:04:59;99788.83;;;7.84;65.37
61436;BME280;47304;47.456;19.160;2023-01-15T15:07:31;99789.55;;;7.83;65.57
61436;BME280;47304;47.456;19.160;2023-01-15T15:12:51;99780.80;;;7.79;65.58
61436;BME280;47304;47.456;19.160;2023-01-15T15:20:46;99779.94;;;7.76;65.99